Pagrindinis puslapis
METAR-TAF:

METAR-TAF

Oro uostai :

Lake Argyle, Australija

platuma: 16-38-13S, ilguma: 128-27-05E, Aukštis: 159 m

Dabartinis oras

Ataskaita buvo paskelbta 34 minutes, ne 08:00 UTC
Vėjas 4 kt iš Šiaurės Rytų, svyruoja nuo Šiaurės ir Rytų/Šiaurės Rytų
Temperatūra 39°C
Drėgmė 18%
Slėgis 1005 hPa
Matomumas 10 km arba daugiau

METAR: YARG 230800Z AUTO 04004KT 010V070 9999 // NCD 39/10 Q1005

Laikas: 16:34 (08:34 UTC)


TAF: trūkstamas

Orai ataskaitas ir orų prognozės (METAR, TAF).

turimą stotys yra geltonos ir raudonos taškus žemėlapyje.

Perkelti pele per norėdami pamatyti stoties vardą.

Tada spustelėkite, norėdami matyti oro stebėjimo ir prognozės.

Norėdami pakeisti žemėlapį: spustelėkite ant žalios mygtukų su juodo kryžiaus žemyn,; žalią mygtuką su brūkšneliu, jei norite nutolinti; arba žalių rodyklių gretimoms žemėlapius.


METAR-TAF: